Time;durP1;ratioP1;P1;durP2;ratioP2;P2;SDS_P1;SDS_P2;PMS_P1;PMS_P2;Temp;Humidity;BMP_temperature;BMP_pressure;BME280_temperature;BME280_humidity;BME280_pressure;Samples;Min_cycle;Max_cycle;Signal;HPM_P1;HPM_P2
2023/05/13 00:00:16;;;;;;;27.50;16.67;;;;;;;;;;5032966;28;20051;-72
2023/05/13 00:02:43;;;;;;;42.10;19.85;;;;;;;;;;5032998;28;20572;-77
2023/05/13 00:05:10;;;;;;;50.92;30.40;;;;;;;;;;5035029;28;20026;-71
2023/05/13 00:07:37;;;;;;;27.63;15.77;;;;;;;;;;5036578;28;20112;-72
2023/05/13 00:10:03;;;;;;;33.08;19.10;;;;;;;;;;5036372;28;20051;-72
2023/05/13 00:12:30;;;;;;;61.35;35.78;;;;;;;;;;5036347;28;20021;-70
2023/05/13 00:14:56;;;;;;;21.20;12.50;;;;;;;;;;5030014;28;20030;-68
2023/05/13 00:17:23;;;;;;;17.60;12.25;;;;;;;;;;5017437;28;20482;-68
2023/05/13 00:19:50;;;;;;;15.50;10.05;;;;;;;;;;5016118;28;20030;-67
2023/05/13 00:22:17;;;;;;;15.18;9.98;;;;;;;;;;5016106;28;20530;-66
2023/05/13 00:24:43;;;;;;;18.85;11.07;;;;;;;;;;5015953;28;20041;-71
2023/05/13 00:27:10;;;;;;;15.98;10.38;;;;;;;;;;5016103;28;20493;-72
2023/05/13 00:29:37;;;;;;;18.25;11.75;;;;;;;;;;5015954;28;20034;-73
2023/05/13 00:32:03;;;;;;;19.23;11.73;;;;;;;;;;5015853;28;20026;-73
2023/05/13 00:34:30;;;;;;;18.90;12.43;;;;;;;;;;5016009;28;20026;-68
2023/05/13 00:36:56;;;;;;;24.52;13.52;;;;;;;;;;5015913;28;20474;-69
2023/05/13 00:39:23;;;;;;;17.08;13.95;;;;;;;;;;5015708;28;20038;-69
2023/05/13 00:41:50;;;;;;;19.42;14.13;;;;;;;;;;5016289;28;20041;-69
2023/05/13 00:44:16;;;;;;;23.25;14.95;;;;;;;;;;5020688;28;20072;-70
2023/05/13 00:46:43;;;;;;;22.02;14.90;;;;;;;;;;5032566;28;20026;-69
2023/05/13 00:49:10;;;;;;;23.10;15.85;;;;;;;;;;5035538;28;20371;-67
2023/05/13 00:51:37;;;;;;;25.95;14.90;;;;;;;;;;5031862;28;20109;-69
2023/05/13 00:54:04;;;;;;;25.38;13.65;;;;;;;;;;5022793;28;20026;-69
2023/05/13 00:56:30;;;;;;;28.83;18.77;;;;;;;;;;5035341;28;20104;-67
2023/05/13 00:58:57;;;;;;;26.45;20.13;;;;;;;;;;5035367;28;20029;-69
2023/05/13 01:01:26;;;;;;;46.70;35.75;;;;;;;;;;5035168;28;20075;-67
2023/05/13 01:03:54;;;;;;;28.70;19.15;;;;;;;;;;5015538;28;20064;-67
2023/05/13 01:06:26;;;;;;;45.10;36.33;;;;;;;;;;5015366;28;20132;-68
2023/05/13 01:08:53;;;;;;;67.13;50.38;;;;;;;;;;5015119;28;20037;-69
2023/05/13 01:11:22;;;;;;;63.15;42.45;;;;;;;;;;5015265;28;20022;-67
2023/05/13 01:13:52;;;;;;;31.35;21.77;;;;;;;;;;5015196;28;20036;-67
2023/05/13 01:16:22;;;;;;;91.00;60.85;;;;;;;;;;5014525;28;20076;-70
2023/05/13 01:18:53;;;;;;;23.23;17.63;;;;;;;;;;5015136;28;20424;-72
2023/05/13 01:21:24;;;;;;;30.85;16.08;;;;;;;;;;5015066;28;20028;-67
2023/05/13 01:23:51;;;;;;;26.48;17.80;;;;;;;;;;5015048;28;20026;-67
2023/05/13 01:26:18;;;;;;;19.35;13.95;;;;;;;;;;5014887;28;20037;-69
2023/05/13 01:28:45;;;;;;;21.05;13.18;;;;;;;;;;5014797;28;20550;-73
2023/05/13 01:31:12;;;;;;;23.42;13.90;;;;;;;;;;5014903;28;20109;-70
2023/05/13 01:33:39;;;;;;;24.77;11.65;;;;;;;;;;5014918;28;20021;-69
2023/05/13 01:36:06;;;;;;;26.08;12.82;;;;;;;;;;5014869;28;20463;-69
2023/05/13 01:38:35;;;;;;;24.73;16.27;;;;;;;;;;5014671;28;20479;-69
2023/05/13 01:41:02;;;;;;;21.95;12.38;;;;;;;;;;5014732;28;20441;-70
2023/05/13 01:43:28;;;;;;;54.72;40.63;;;;;;;;;;5014591;28;20140;-70
2023/05/13 01:45:59;;;;;;;19.60;13.48;;;;;;;;;;5014543;28;20022;-71
2023/05/13 01:48:25;;;;;;;23.25;12.80;;;;;;;;;;5014360;28;20502;-72
2023/05/13 01:50:52;;;;;;;27.70;16.15;;;;;;;;;;5014353;28;20018;-75
2023/05/13 01:53:19;;;;;;;36.67;15.65;;;;;;;;;;5014608;28;20499;-72
2023/05/13 01:55:46;;;;;;;30.60;17.55;;;;;;;;;;5014410;28;20029;-70
2023/05/13 01:58:12;;;;;;;26.90;15.93;;;;;;;;;;5014591;28;20033;-71
2023/05/13 02:00:39;;;;;;;31.10;14.95;;;;;;;;;;4996527;28;20483;-70
2023/05/13 02:03:06;;;;;;;24.25;11.85;;;;;;;;;;5014241;28;20050;-68
2023/05/13 02:05:32;;;;;;;23.20;12.68;;;;;;;;;;5014270;28;20029;-70
2023/05/13 02:07:59;;;;;;;21.73;12.15;;;;;;;;;;5014069;28;20030;-71
2023/05/13 02:10:25;;;;;;;25.02;12.48;;;;;;;;;;5014480;28;20096;-71
2023/05/13 02:12:52;;;;;;;25.55;16.13;;;;;;;;;;5014221;28;20025;-68
2023/05/13 02:15:19;;;;;;;39.38;28.98;;;;;;;;;;5014026;28;20034;-68
2023/05/13 02:17:45;;;;;;;21.02;11.55;;;;;;;;;;5013987;28;20030;-68
2023/05/13 02:20:12;;;;;;;22.00;11.20;;;;;;;;;;5014023;28;20080;-69
2023/05/13 02:22:39;;;;;;;21.08;11.10;;;;;;;;;;5013889;28;20022;-68
2023/05/13 02:25:06;;;;;;;19.48;10.05;;;;;;;;;;5014055;28;20498;-68
2023/05/13 02:27:32;;;;;;;26.80;16.17;;;;;;;;;;5013179;28;20033;-68
2023/05/13 02:29:59;;;;;;;26.70;17.33;;;;;;;;;;5016268;28;20549;-68
2023/05/13 02:32:26;;;;;;;15.50;9.60;;;;;;;;;;5022421;28;20494;-68
2023/05/13 02:34:53;;;;;;;23.23;13.52;;;;;;;;;;5018470;28;20033;-69
2023/05/13 02:37:19;;;;;;;16.90;10.52;;;;;;;;;;5022053;28;20025;-69
2023/05/13 02:39:46;;;;;;;23.00;12.40;;;;;;;;;;5046442;22;20382;-67
2023/05/13 02:42:12;;;;;;;66.00;49.75;;;;;;;;;;5024181;28;20039;-67
2023/05/13 02:44:39;;;;;;;22.17;12.50;;;;;;;;;;5023690;28;20025;-67
2023/05/13 02:47:06;;;;;;;13.32;7.88;;;;;;;;;;5031254;28;20095;-65
2023/05/13 02:49:32;;;;;;;13.45;6.57;;;;;;;;;;5029947;28;20486;-67
2023/05/13 02:51:59;;;;;;;18.45;6.72;;;;;;;;;;5021641;28;20390;-67
2023/05/13 02:54:25;;;;;;;16.63;9.93;;;;;;;;;;5022619;28;20016;-67
2023/05/13 02:56:52;;;;;;;17.77;9.05;;;;;;;;;;5023591;28;20467;-68
2023/05/13 02:59:19;;;;;;;49.90;34.53;;;;;;;;;;5021735;28;20111;-67
2023/05/13 03:01:45;;;;;;;29.08;18.20;;;;;;;;;;5022526;28;20025;-65
2023/05/13 03:04:12;;;;;;;16.00;10.30;;;;;;;;;;5028031;28;20021;-66
2023/05/13 03:06:39;;;;;;;78.10;59.90;;;;;;;;;;5023410;28;20022;-68
2023/05/13 03:09:05;;;;;;;29.65;21.40;;;;;;;;;;5022396;28;20779;-69
2023/05/13 03:11:32;;;;;;;35.58;28.55;;;;;;;;;;5022074;28;20052;-67
2023/05/13 03:13:58;;;;;;;12.15;6.97;;;;;;;;;;5023374;28;20026;-66
2023/05/13 03:16:25;;;;;;;12.25;5.95;;;;;;;;;;5030579;28;20025;-66
2023/05/13 03:18:52;;;;;;;16.40;7.28;;;;;;;;;;5033026;28;20036;-66
2023/05/13 03:21:18;;;;;;;10.75;6.32;;;;;;;;;;5032832;28;20033;-66
2023/05/13 03:23:45;;;;;;;16.85;6.30;;;;;;;;;;5033057;28;20025;-66
2023/05/13 03:26:12;;;;;;;13.27;5.55;;;;;;;;;;5033284;28;20026;-68
2023/05/13 03:28:38;;;;;;;12.82;6.43;;;;;;;;;;5015093;28;20033;-67
2023/05/13 03:31:05;;;;;;;12.23;5.72;;;;;;;;;;5032415;28;20053;-67
2023/05/13 03:33:32;;;;;;;15.07;6.53;;;;;;;;;;5033004;28;20520;-67
2023/05/13 03:35:58;;;;;;;13.23;6.18;;;;;;;;;;5032826;28;20508;-66
2023/05/13 03:38:25;;;;;;;7.05;5.05;;;;;;;;;;5033901;28;20429;-66
2023/05/13 03:40:51;;;;;;;12.48;5.95;;;;;;;;;;5036518;28;20045;-67
2023/05/13 03:43:18;;;;;;;10.23;5.70;;;;;;;;;;5036748;28;20030;-67
2023/05/13 03:45:47;;;;;;;12.95;5.75;;;;;;;;;;5036453;28;20020;-65
2023/05/13 03:48:14;;;;;;;14.32;6.35;;;;;;;;;;5036671;28;20029;-68
2023/05/13 03:50:40;;;;;;;23.95;11.65;;;;;;;;;;5036437;28;20449;-63
2023/05/13 03:53:07;;;;;;;17.02;7.70;;;;;;;;;;5036292;28;20025;-64
2023/05/13 03:55:33;;;;;;;12.85;6.07;;;;;;;;;;5036545;28;20024;-66
2023/05/13 03:58:00;;;;;;;10.30;5.63;;;;;;;;;;5036430;28;20026;-65
2023/05/13 04:00:27;;;;;;;10.60;5.88;;;;;;;;;;5036246;28;20028;-65
2023/05/13 04:02:53;;;;;;;13.35;5.82;;;;;;;;;;5036309;28;20029;-65
2023/05/13 04:05:21;;;;;;;12.50;6.55;;;;;;;;;;5028247;28;20037;-68
2023/05/13 04:07:47;;;;;;;33.25;19.50;;;;;;;;;;5016128;28;20414;-68
2023/05/13 04:10:14;;;;;;;25.08;16.13;;;;;;;;;;5016379;28;20022;-69
2023/05/13 04:12:40;;;;;;;24.08;14.77;;;;;;;;;;5010553;28;20025;-68
2023/05/13 04:15:07;;;;;;;18.40;8.32;;;;;;;;;;5009705;28;20108;-66
2023/05/13 04:17:34;;;;;;;13.90;6.45;;;;;;;;;;5009114;28;20435;-68
2023/05/13 04:20:01;;;;;;;13.90;6.82;;;;;;;;;;5005411;28;20042;-70
2023/05/13 04:22:27;;;;;;;19.95;6.72;;;;;;;;;;5009121;28;20477;-68
2023/05/13 04:24:55;;;;;;;10.45;5.95;;;;;;;;;;5005321;28;20437;-68
2023/05/13 04:27:24;;;;;;;16.75;5.75;;;;;;;;;;5002515;28;20018;-67
2023/05/13 04:29:51;;;;;;;20.98;6.95;;;;;;;;;;5002164;28;20023;-68
2023/05/13 04:32:20;;;;;;;12.10;6.20;;;;;;;;;;5000126;28;20046;-68
2023/05/13 04:34:48;;;;;;;13.80;6.13;;;;;;;;;;5006179;28;20035;-67
2023/05/13 04:37:15;;;;;;;11.75;6.90;;;;;;;;;;5004233;28;20081;-67
2023/05/13 04:39:45;;;;;;;28.75;19.98;;;;;;;;;;5005433;28;20071;-65
2023/05/13 04:42:12;;;;;;;18.10;9.20;;;;;;;;;;5006468;28;20053;-68
2023/05/13 04:44:39;;;;;;;19.50;8.25;;;;;;;;;;5004832;28;20026;-67
2023/05/13 04:47:05;;;;;;;17.35;10.13;;;;;;;;;;5005232;28;20399;-69
2023/05/13 04:49:32;;;;;;;13.23;9.25;;;;;;;;;;5005989;28;20486;-68
2023/05/13 04:52:01;;;;;;;50.97;40.72;;;;;;;;;;5000171;28;20022;-67
2023/05/13 04:54:27;;;;;;;50.78;34.67;;;;;;;;;;5005635;28;20467;-68
2023/05/13 04:56:54;;;;;;;16.88;8.75;;;;;;;;;;5011049;28;20101;-68
2023/05/13 04:59:22;;;;;;;14.57;9.43;;;;;;;;;;5004888;28;20029;-67
2023/05/13 05:01:48;;;;;;;22.27;11.95;;;;;;;;;;5004290;28;20030;-69
2023/05/13 05:04:15;;;;;;;19.63;7.60;;;;;;;;;;5004646;28;20022;-68
2023/05/13 05:06:42;;;;;;;21.60;8.77;;;;;;;;;;5005488;28;20018;-69
2023/05/13 05:09:08;;;;;;;16.90;6.57;;;;;;;;;;5005626;28;20040;-70
2023/05/13 05:11:35;;;;;;;16.80;5.82;;;;;;;;;;5006635;28;20098;-69
2023/05/13 05:14:02;;;;;;;21.45;8.90;;;;;;;;;;5004677;28;20032;-70
2023/05/13 05:16:28;;;;;;;15.90;7.85;;;;;;;;;;5013697;28;20072;-69
2023/05/13 05:18:55;;;;;;;12.00;6.38;;;;;;;;;;5015999;28;20030;-68
2023/05/13 05:21:23;;;;;;;10.43;5.97;;;;;;;;;;5016018;28;20021;-74
2023/05/13 05:23:49;;;;;;;8.32;5.50;;;;;;;;;;5013571;28;20025;-69
2023/05/13 05:26:16;;;;;;;11.55;5.60;;;;;;;;;;5008701;28;20034;-70
2023/05/13 05:28:43;;;;;;;13.23;6.20;;;;;;;;;;5012137;28;20037;-69
2023/05/13 05:31:09;;;;;;;14.20;5.53;;;;;;;;;;5015094;28;20531;-70
2023/05/13 05:33:36;;;;;;;13.38;5.65;;;;;;;;;;5015082;28;20014;-69
2023/05/13 05:36:03;;;;;;;15.45;6.00;;;;;;;;;;5013825;28;20017;-69
2023/05/13 05:38:30;;;;;;;13.40;6.05;;;;;;;;;;5013544;28;20018;-69
2023/05/13 05:40:57;;;;;;;15.15;6.40;;;;;;;;;;5014157;28;20469;-69
2023/05/13 05:43:24;;;;;;;83.95;57.60;;;;;;;;;;5014683;28;20034;-71
2023/05/13 05:45:50;;;;;;;37.17;25.45;;;;;;;;;;5012543;28;20029;-70
2023/05/13 05:48:17;;;;;;;87.57;56.22;;;;;;;;;;5011885;28;20443;-69
2023/05/13 05:50:44;;;;;;;42.20;29.10;;;;;;;;;;5011258;28;20066;-69
2023/05/13 05:53:10;;;;;;;20.52;9.48;;;;;;;;;;5001713;28;20037;-69
2023/05/13 05:55:37;;;;;;;12.00;6.68;;;;;;;;;;5002858;28;20026;-69
2023/05/13 05:58:05;;;;;;;14.55;6.57;;;;;;;;;;5003103;28;20021;-69
2023/05/13 06:00:33;;;;;;;11.70;5.40;;;;;;;;;;5005859;28;20029;-69
2023/05/13 06:02:59;;;;;;;11.80;5.70;;;;;;;;;;5003059;28;20022;-68
2023/05/13 06:05:26;;;;;;;10.65;6.05;;;;;;;;;;5008734;28;20152;-69
2023/05/13 06:07:52;;;;;;;27.52;16.15;;;;;;;;;;5008801;28;20496;-69
2023/05/13 06:10:19;;;;;;;14.20;8.10;;;;;;;;;;5009902;28;20022;-68
2023/05/13 06:12:46;;;;;;;9.32;5.32;;;;;;;;;;5002791;28;20033;-70
2023/05/13 06:15:12;;;;;;;8.10;4.95;;;;;;;;;;5002411;28;20105;-68
2023/05/13 06:17:40;;;;;;;14.82;5.47;;;;;;;;;;5006081;28;20053;-69
2023/05/13 06:20:06;;;;;;;26.05;9.93;;;;;;;;;;5008627;28;20022;-69
2023/05/13 06:22:33;;;;;;;10.88;5.90;;;;;;;;;;5001980;28;20077;-69
2023/05/13 06:25:00;;;;;;;15.70;6.15;;;;;;;;;;5008153;28;20391;-70
2023/05/13 06:27:27;;;;;;;11.50;5.57;;;;;;;;;;5003582;28;20022;-72
2023/05/13 06:29:56;;;;;;;14.88;5.85;;;;;;;;;;5002657;28;20056;-68
2023/05/13 06:32:22;;;;;;;17.73;8.82;;;;;;;;;;5004769;28;20443;-69
2023/05/13 06:34:51;;;;;;;9.20;5.40;;;;;;;;;;5001029;28;20106;-70
2023/05/13 06:37:18;;;;;;;15.23;10.13;;;;;;;;;;5001769;28;20049;-69
2023/05/13 06:39:45;;;;;;;10.63;5.53;;;;;;;;;;5006342;28;20060;-68
2023/05/13 06:42:12;;;;;;;15.65;6.88;;;;;;;;;;5002512;28;20446;-70
2023/05/13 06:44:39;;;;;;;12.15;6.55;;;;;;;;;;5005995;28;20026;-68
2023/05/13 06:47:06;;;;;;;10.77;5.25;;;;;;;;;;5004116;28;20317;-69
2023/05/13 06:49:33;;;;;;;10.63;4.65;;;;;;;;;;5002227;28;20039;-68
2023/05/13 06:51:59;;;;;;;6.55;4.65;;;;;;;;;;5008488;28;20018;-70
2023/05/13 06:54:26;;;;;;;7.85;4.75;;;;;;;;;;5003651;28;20018;-69
2023/05/13 06:56:53;;;;;;;10.98;4.97;;;;;;;;;;5003068;28;20023;-67
2023/05/13 06:59:21;;;;;;;8.07;5.10;;;;;;;;;;5002677;28;20026;-66
2023/05/13 07:01:48;;;;;;;10.40;5.53;;;;;;;;;;5003813;28;20084;-69
2023/05/13 07:04:14;;;;;;;9.30;4.72;;;;;;;;;;5000979;28;20350;-67
2023/05/13 07:06:41;;;;;;;11.90;5.07;;;;;;;;;;5003924;28;20033;-66
2023/05/13 07:09:08;;;;;;;10.48;4.15;;;;;;;;;;5004196;28;20045;-69
2023/05/13 07:11:37;;;;;;;9.25;4.82;;;;;;;;;;5013530;28;20061;-68
2023/05/13 07:14:04;;;;;;;11.07;5.18;;;;;;;;;;5004881;28;20479;-70
2023/05/13 07:16:31;;;;;;;14.63;5.10;;;;;;;;;;5011252;28;20382;-70
2023/05/13 07:18:57;;;;;;;11.63;5.25;;;;;;;;;;5014598;28;20553;-69
2023/05/13 07:21:24;;;;;;;10.85;5.65;;;;;;;;;;5001653;28;20125;-69
2023/05/13 07:23:51;;;;;;;15.18;5.78;;;;;;;;;;5003545;28;20092;-70
2023/05/13 07:26:17;;;;;;;8.55;4.60;;;;;;;;;;5009686;28;20109;-69
2023/05/13 07:28:44;;;;;;;10.77;5.18;;;;;;;;;;5006208;28;20025;-69
2023/05/13 07:31:11;;;;;;;14.65;6.45;;;;;;;;;;5005159;28;20057;-69
2023/05/13 07:33:37;;;;;;;10.77;4.60;;;;;;;;;;5007553;28;20029;-67
2023/05/13 07:36:05;;;;;;;10.45;4.82;;;;;;;;;;5008778;28;20026;-71
2023/05/13 07:38:31;;;;;;;12.73;4.50;;;;;;;;;;5009301;28;20030;-66
2023/05/13 07:40:59;;;;;;;10.98;4.43;;;;;;;;;;5009178;28;20446;-67
2023/05/13 07:43:26;;;;;;;7.97;5.28;;;;;;;;;;5010009;28;20026;-67
2023/05/13 07:45:53;;;;;;;7.72;5.07;;;;;;;;;;5009675;28;20022;-70
2023/05/13 07:48:19;;;;;;;10.30;4.45;;;;;;;;;;5009644;28;20022;-68
2023/05/13 07:50:46;;;;;;;8.90;4.38;;;;;;;;;;5010158;28;20026;-71
2023/05/13 07:53:13;;;;;;;6.25;3.83;;;;;;;;;;5009803;28;20587;-73
2023/05/13 07:55:40;;;;;;;6.82;3.83;;;;;;;;;;5009630;28;20017;-71
2023/05/13 07:58:06;;;;;;;11.93;3.88;;;;;;;;;;5009806;28;20025;-66
2023/05/13 08:00:33;;;;;;;7.63;4.32;;;;;;;;;;5009212;28;20026;-67
2023/05/13 08:03:00;;;;;;;5.03;4.07;;;;;;;;;;5006707;28;20033;-69
2023/05/13 08:05:26;;;;;;;8.05;4.72;;;;;;;;;;5005309;28;20054;-66
2023/05/13 08:07:53;;;;;;;9.80;3.97;;;;;;;;;;5007832;28;20030;-68
2023/05/13 08:10:20;;;;;;;6.13;3.88;;;;;;;;;;5008103;28;20425;-67
2023/05/13 08:12:51;;;;;;;9.77;4.07;;;;;;;;;;5010214;28;20026;-67
2023/05/13 08:15:17;;;;;;;7.10;3.90;;;;;;;;;;5007294;28;20169;-66
2023/05/13 08:17:44;;;;;;;8.40;4.20;;;;;;;;;;5010916;28;20052;-67
2023/05/13 08:20:11;;;;;;;7.68;3.92;;;;;;;;;;5006183;28;20360;-67
2023/05/13 08:22:37;;;;;;;9.32;4.03;;;;;;;;;;5006621;28;20030;-66
2023/05/13 08:25:04;;;;;;;9.07;4.07;;;;;;;;;;5005097;28;20022;-66
2023/05/13 08:27:31;;;;;;;9.80;5.05;;;;;;;;;;5006384;28;20030;-66
2023/05/13 08:29:57;;;;;;;6.88;3.38;;;;;;;;;;5007422;28;20083;-66
2023/05/13 08:32:24;;;;;;;7.35;3.83;;;;;;;;;;5008528;28;20026;-68
2023/05/13 08:34:51;;;;;;;9.45;3.67;;;;;;;;;;5008171;28;20537;-67
2023/05/13 08:37:17;;;;;;;12.90;5.57;;;;;;;;;;5005183;28;20411;-66
2023/05/13 08:39:44;;;;;;;10.23;5.22;;;;;;;;;;5004151;28;20030;-65
2023/05/13 08:42:11;;;;;;;9.38;4.25;;;;;;;;;;5004200;28;20503;-65
2023/05/13 08:44:39;;;;;;;8.05;3.42;;;;;;;;;;5006897;28;20133;-65
2023/05/13 08:47:14;;;;;;;5.20;3.40;;;;;;;;;;5005646;28;20030;-65
2023/05/13 08:49:41;;;;;;;7.57;4.45;;;;;;;;;;5006482;28;20037;-65
2023/05/13 08:52:08;;;;;;;7.28;4.03;;;;;;;;;;5005682;28;20029;-66
2023/05/13 08:54:35;;;;;;;10.57;4.75;;;;;;;;;;5004818;28;20112;-65
2023/05/13 08:57:02;;;;;;;9.73;5.35;;;;;;;;;;5002947;28;20037;-66
2023/05/13 08:59:28;;;;;;;17.70;10.98;;;;;;;;;;5005143;28;20029;-66
2023/05/13 09:01:55;;;;;;;8.40;4.32;;;;;;;;;;5003617;28;20498;-68
2023/05/13 09:04:22;;;;;;;9.30;4.35;;;;;;;;;;5006763;28;20026;-65
2023/05/13 09:06:49;;;;;;;6.93;3.83;;;;;;;;;;5004559;28;20026;-65
2023/05/13 09:09:16;;;;;;;6.30;3.97;;;;;;;;;;5006689;28;20085;-66
2023/05/13 09:11:43;;;;;;;7.68;4.60;;;;;;;;;;5004848;28;20018;-66
2023/05/13 09:14:10;;;;;;;6.55;4.82;;;;;;;;;;5005618;28;20049;-66
2023/05/13 09:16:38;;;;;;;8.90;5.22;;;;;;;;;;5006216;28;20045;-67
2023/05/13 09:19:05;;;;;;;10.50;6.32;;;;;;;;;;5003004;28;20037;-68
2023/05/13 09:21:34;;;;;;;8.25;5.00;;;;;;;;;;5002216;28;20022;-66
2023/05/13 09:24:06;;;;;;;7.05;3.90;;;;;;;;;;5003068;28;20067;-66
2023/05/13 09:26:33;;;;;;;6.72;4.15;;;;;;;;;;5004733;28;20030;-68
2023/05/13 09:29:20;;;;;;;7.50;4.13;;;;;;;;;;4999606;28;20253;-66
2023/05/13 09:31:48;;;;;;;53.03;47.03;;;;;;;;;;5001689;28;20093;-66
2023/05/13 09:34:15;;;;;;;12.32;7.25;;;;;;;;;;4999165;28;20502;-67
2023/05/13 09:36:41;;;;;;;5.53;4.13;;;;;;;;;;4999960;28;20113;-64
2023/05/13 09:39:08;;;;;;;9.25;7.60;;;;;;;;;;5004267;28;20018;-66
2023/05/13 09:41:35;;;;;;;8.82;4.68;;;;;;;;;;5004153;28;20038;-68
2023/05/13 09:44:03;;;;;;;12.45;9.60;;;;;;;;;;4999874;28;20034;-67
2023/05/13 09:46:31;;;;;;;7.65;5.35;;;;;;;;;;5010597;28;20113;-67
2023/05/13 09:48:58;;;;;;;7.10;4.80;;;;;;;;;;5003994;28;20041;-69
2023/05/13 09:51:26;;;;;;;8.90;5.25;;;;;;;;;;5005699;28;20030;-68
2023/05/13 09:53:53;;;;;;;20.75;11.95;;;;;;;;;;5003320;28;20097;-66
2023/05/13 09:56:22;;;;;;;15.20;8.15;;;;;;;;;;5003421;28;20380;-66
2023/05/13 09:58:51;;;;;;;11.02;7.25;;;;;;;;;;5002147;28;20168;-68
2023/05/13 10:01:20;;;;;;;23.38;14.63;;;;;;;;;;5003828;28;20014;-67
2023/05/13 10:03:47;;;;;;;12.57;9.82;;;;;;;;;;5000644;28;20487;-65
2023/05/13 10:06:17;;;;;;;20.45;13.02;;;;;;;;;;5014108;28;20101;-66
2023/05/13 10:08:47;;;;;;;30.05;14.10;;;;;;;;;;5014103;28;20073;-67
2023/05/13 10:11:14;;;;;;;17.60;14.63;;;;;;;;;;5014375;28;20478;-67
2023/05/13 10:13:42;;;;;;;21.30;15.60;;;;;;;;;;5008486;28;20022;-70
2023/05/13 10:16:08;;;;;;;13.90;10.80;;;;;;;;;;5008153;28;20475;-69
2023/05/13 10:18:35;;;;;;;15.45;8.50;;;;;;;;;;4997420;28;20077;-68
2023/05/13 10:21:03;;;;;;;20.17;11.02;;;;;;;;;;5006414;28;20108;-66
2023/05/13 10:23:31;;;;;;;15.35;9.05;;;;;;;;;;5004773;28;20028;-65
2023/05/13 10:25:59;;;;;;;20.80;14.73;;;;;;;;;;5002324;28;20030;-67
2023/05/13 10:28:26;;;;;;;18.08;12.90;;;;;;;;;;4994442;28;20027;-69
2023/05/13 10:30:53;;;;;;;20.17;12.30;;;;;;;;;;4994464;28;20035;-67
2023/05/13 10:33:20;;;;;;;101.93;61.20;;;;;;;;;;4994142;28;20098;-68
2023/05/13 10:36:06;;;;;;;51.90;33.97;;;;;;;;;;5002140;28;20364;-68
2023/05/13 10:38:42;;;;;;;28.73;16.92;;;;;;;;;;5013635;28;20083;-64
2023/05/13 10:41:28;;;;;;;48.35;29.70;;;;;;;;;;5013477;28;20057;-65
2023/05/13 10:43:57;;;;;;;64.88;39.80;;;;;;;;;;5007819;28;20030;-65
2023/05/13 10:46:24;;;;;;;93.70;49.53;;;;;;;;;;5003441;28;20288;-67
2023/05/13 10:48:56;;;;;;;70.70;38.47;;;;;;;;;;5005069;28;20018;-68
2023/05/13 10:51:24;;;;;;;67.18;34.40;;;;;;;;;;5007404;28;20045;-69
2023/05/13 10:53:53;;;;;;;50.70;28.83;;;;;;;;;;5010668;28;20070;-70
2023/05/13 10:56:24;;;;;;;61.67;34.67;;;;;;;;;;5001837;28;20139;-69
2023/05/13 10:59:01;;;;;;;84.47;48.50;;;;;;;;;;4994851;28;20030;-70
2023/05/13 11:01:29;;;;;;;76.03;45.00;;;;;;;;;;5003532;28;20026;-71
2023/05/13 11:03:59;;;;;;;81.88;43.20;;;;;;;;;;5003813;28;20022;-70
2023/05/13 11:06:34;;;;;;;72.13;37.42;;;;;;;;;;5003226;28;20048;-68
2023/05/13 11:11:41;;;;;;;132.90;83.13;;;;;;;;;;5088844;28;20432;-68
2023/05/13 11:14:07;;;;;;;154.02;96.97;;;;;;;;;;5088570;28;20178;-70
2023/05/13 11:16:35;;;;;;;153.10;92.38;;;;;;;;;;5085639;28;20020;-70
2023/05/13 11:19:03;;;;;;;127.65;84.75;;;;;;;;;;5088526;28;20031;-70
2023/05/13 11:21:31;;;;;;;103.13;57.00;;;;;;;;;;5088566;28;20082;-70
2023/05/13 11:23:58;;;;;;;108.13;51.53;;;;;;;;;;5088539;28;20081;-71
2023/05/13 11:26:24;;;;;;;96.15;44.65;;;;;;;;;;5088489;28;20051;-71
2023/05/13 11:29:03;;;;;;;85.47;40.10;;;;;;;;;;5088249;28;20430;-69
2023/05/13 11:31:42;;;;;;;109.57;57.42;;;;;;;;;;5080487;28;20414;-70
2023/05/13 11:34:10;;;;;;;99.03;52.25;;;;;;;;;;5086844;28;20091;-69
2023/05/13 11:36:37;;;;;;;121.40;66.20;;;;;;;;;;5088438;28;20481;-71
2023/05/13 11:39:25;;;;;;;130.23;63.38;;;;;;;;;;5083188;28;20381;-70
2023/05/13 11:41:54;;;;;;;149.13;62.08;;;;;;;;;;5066502;28;20496;-69
2023/05/13 11:44:21;;;;;;;126.75;65.75;;;;;;;;;;5070344;28;20029;-66
2023/05/13 11:46:51;;;;;;;128.80;61.95;;;;;;;;;;5069848;28;20024;-68
2023/05/13 11:49:38;;;;;;;114.10;52.92;;;;;;;;;;5069917;28;20099;-69
2023/05/13 11:52:06;;;;;;;118.85;56.47;;;;;;;;;;5069650;28;20025;-70
2023/05/13 11:54:41;;;;;;;127.80;63.72;;;;;;;;;;5069863;28;20046;-69
2023/05/13 11:57:14;;;;;;;124.05;61.85;;;;;;;;;;5070034;28;20362;-68
2023/05/13 11:59:42;;;;;;;125.13;63.50;;;;;;;;;;5069707;28;20028;-69
2023/05/13 12:02:08;;;;;;;143.55;67.75;;;;;;;;;;5069779;28;20078;-70
2023/05/13 12:04:35;;;;;;;189.23;101.07;;;;;;;;;;5069431;28;20094;-68
2023/05/13 12:07:01;;;;;;;157.05;81.70;;;;;;;;;;5069616;28;20039;-69
2023/05/13 12:09:28;;;;;;;150.10;73.35;;;;;;;;;;5069315;28;20449;-69
2023/05/13 12:11:55;;;;;;;146.77;74.93;;;;;;;;;;5069319;28;20029;-70
2023/05/13 12:14:22;;;;;;;153.43;68.78;;;;;;;;;;5069532;28;20117;-68
2023/05/13 12:16:49;;;;;;;137.07;60.72;;;;;;;;;;5069329;28;20426;-69
2023/05/13 12:19:16;;;;;;;121.95;58.08;;;;;;;;;;5069114;28;20074;-69
2023/05/13 12:21:43;;;;;;;119.53;55.22;;;;;;;;;;5062894;28;20489;-69
2023/05/13 12:24:19;;;;;;;170.75;98.78;;;;;;;;;;5055963;28;20029;-70
2023/05/13 12:26:46;;;;;;;193.20;103.95;;;;;;;;;;5051693;28;20112;-69
2023/05/13 12:29:13;;;;;;;180.38;92.68;;;;;;;;;;5044529;28;20310;-67
2023/05/13 12:31:42;;;;;;;198.05;103.18;;;;;;;;;;5055047;28;20025;-67
2023/05/13 12:34:10;;;;;;;197.50;110.57;;;;;;;;;;5055031;28;20036;-67
2023/05/13 12:36:37;;;;;;;197.38;105.55;;;;;;;;;;5046820;28;20025;-67
2023/05/13 12:39:05;;;;;;;168.13;91.85;;;;;;;;;;5051872;28;20025;-70
2023/05/13 12:41:33;;;;;;;157.60;87.80;;;;;;;;;;5052981;28;20024;-69
2023/05/13 12:44:04;;;;;;;128.52;73.65;;;;;;;;;;5054496;28;20028;-68
2023/05/13 12:46:31;;;;;;;126.63;68.17;;;;;;;;;;5050414;28;20029;-69
2023/05/13 12:49:01;;;;;;;103.40;58.85;;;;;;;;;;5054471;28;20270;-71
2023/05/13 12:51:29;;;;;;;105.80;58.95;;;;;;;;;;5051773;28;20107;-70
2023/05/13 12:53:57;;;;;;;94.65;57.05;;;;;;;;;;5051027;28;20539;-71
2023/05/13 12:56:24;;;;;;;100.40;55.13;;;;;;;;;;5054042;28;20024;-69
2023/05/13 12:58:51;;;;;;;97.60;54.97;;;;;;;;;;5054134;28;20096;-67
2023/05/13 13:01:18;;;;;;;85.93;50.03;;;;;;;;;;5052931;28;20044;-69
2023/05/13 13:03:45;;;;;;;86.70;50.15;;;;;;;;;;5052317;28;20025;-68
2023/05/13 13:06:12;;;;;;;80.45;49.00;;;;;;;;;;5053936;28;20021;-68
2023/05/13 13:08:39;;;;;;;86.18;48.17;;;;;;;;;;5053478;28;20083;-68
2023/05/13 13:11:06;;;;;;;77.05;44.33;;;;;;;;;;5052996;28;20045;-69
2023/05/13 13:13:33;;;;;;;64.43;40.60;;;;;;;;;;5052347;28;20022;-70
2023/05/13 13:16:00;;;;;;;68.80;42.45;;;;;;;;;;5053294;28;20021;-68
2023/05/13 13:18:27;;;;;;;65.75;41.03;;;;;;;;;;5043314;28;20059;-69
2023/05/13 13:20:54;;;;;;;71.78;42.08;;;;;;;;;;5053845;28;20466;-69
2023/05/13 13:23:21;;;;;;;66.38;41.40;;;;;;;;;;5053545;28;20400;-69
2023/05/13 13:25:48;;;;;;;64.10;41.33;;;;;;;;;;5053195;28;20049;-70
2023/05/13 13:28:14;;;;;;;48.03;34.35;;;;;;;;;;5052075;28;20123;-69
2023/05/13 13:30:45;;;;;;;49.97;30.15;;;;;;;;;;5054132;28;20032;-69
2023/05/13 13:33:13;;;;;;;48.65;29.83;;;;;;;;;;5052975;28;20025;-70
2023/05/13 13:35:39;;;;;;;46.53;28.52;;;;;;;;;;5054163;28;20055;-71
2023/05/13 13:38:07;;;;;;;46.50;27.45;;;;;;;;;;5043512;28;20039;-70
2023/05/13 13:40:34;;;;;;;44.58;27.83;;;;;;;;;;5044810;28;20027;-69
2023/05/13 13:43:02;;;;;;;44.90;27.98;;;;;;;;;;5043407;28;20025;-70
2023/05/13 13:45:28;;;;;;;42.17;28.08;;;;;;;;;;5042759;28;20258;-71
2023/05/13 13:47:55;;;;;;;42.40;28.05;;;;;;;;;;5045005;28;20029;-69
2023/05/13 13:50:21;;;;;;;52.90;29.15;;;;;;;;;;5046423;28;20032;-72
2023/05/13 13:52:51;;;;;;;51.20;32.08;;;;;;;;;;5051556;28;20048;-70
2023/05/13 13:55:18;;;;;;;53.55;33.33;;;;;;;;;;5053810;28;20071;-69
2023/05/13 13:57:45;;;;;;;59.83;35.85;;;;;;;;;;5042556;28;20017;-70
2023/05/13 14:00:13;;;;;;;59.00;35.83;;;;;;;;;;5036982;28;20021;-72
2023/05/13 14:02:40;;;;;;;60.22;35.42;;;;;;;;;;5043502;28;20037;-69
2023/05/13 14:05:07;;;;;;;61.50;35.70;;;;;;;;;;5074324;28;20478;-69
2023/05/13 14:07:33;;;;;;;68.22;39.95;;;;;;;;;;5043428;28;20116;-70
2023/05/13 14:10:00;;;;;;;85.15;48.33;;;;;;;;;;5043160;28;20041;-69
2023/05/13 14:12:26;;;;;;;75.53;40.42;;;;;;;;;;5050814;28;20473;-69
2023/05/13 14:14:53;;;;;;;52.42;33.47;;;;;;;;;;5051734;28;20033;-70
2023/05/13 14:17:20;;;;;;;51.72;33.38;;;;;;;;;;5051525;28;20017;-70
2023/05/13 14:19:50;;;;;;;61.67;36.50;;;;;;;;;;5051682;28;20028;-70
2023/05/13 14:22:17;;;;;;;66.72;42.03;;;;;;;;;;5049159;28;20020;-70
2023/05/13 14:24:44;;;;;;;71.32;46.75;;;;;;;;;;5050080;28;20017;-69
2023/05/13 14:27:10;;;;;;;67.97;43.30;;;;;;;;;;5052506;28;20017;-70